sensor_id;sensor_type;location;lat;lon;timestamp;P1;durP1;ratioP1;P2;durP2;ratioP2
5149;SDS011;2593;52.466;13.436;2023-04-12T00:01:08;8.90;;;3.10;;
5149;SDS011;2593;52.466;13.436;2023-04-12T00:03:34;6.27;;;2.63;;
5149;SDS011;2593;52.466;13.436;2023-04-12T00:05:59;2.80;;;2.60;;
5149;SDS011;2593;52.466;13.436;2023-04-12T00:08:27;6.17;;;2.17;;
5149;SDS011;2593;52.466;13.436;2023-04-12T00:10:59;2.53;;;2.33;;
5149;SDS011;2593;52.466;13.436;2023-04-12T00:13:26;9.00;;;3.20;;
5149;SDS011;2593;52.466;13.436;2023-04-12T00:15:53;4.60;;;2.40;;
5149;SDS011;2593;52.466;13.436;2023-04-12T00:18:18;4.30;;;2.80;;
5149;SDS011;2593;52.466;13.436;2023-04-12T00:20:45;5.13;;;2.90;;
5149;SDS011;2593;52.466;13.436;2023-04-12T00:23:11;4.13;;;2.60;;
5149;SDS011;2593;52.466;13.436;2023-04-12T00:25:37;7.13;;;3.87;;
5149;SDS011;2593;52.466;13.436;2023-04-12T00:28:03;4.83;;;3.70;;
5149;SDS011;2593;52.466;13.436;2023-04-12T00:30:29;7.43;;;4.23;;
5149;SDS011;2593;52.466;13.436;2023-04-12T00:32:55;7.50;;;4.37;;
5149;SDS011;2593;52.466;13.436;2023-04-12T00:35:22;16.70;;;4.60;;
5149;SDS011;2593;52.466;13.436;2023-04-12T00:37:47;7.63;;;4.60;;
5149;SDS011;2593;52.466;13.436;2023-04-12T00:40:14;6.13;;;4.77;;
5149;SDS011;2593;52.466;13.436;2023-04-12T00:42:40;3.70;;;3.40;;
5149;SDS011;2593;52.466;13.436;2023-04-12T00:45:06;4.67;;;3.70;;
5149;SDS011;2593;52.466;13.436;2023-04-12T00:47:33;3.73;;;3.20;;
5149;SDS011;2593;52.466;13.436;2023-04-12T00:50:00;9.80;;;3.50;;
5149;SDS011;2593;52.466;13.436;2023-04-12T00:52:28;8.37;;;3.87;;
5149;SDS011;2593;52.466;13.436;2023-04-12T00:55:02;9.50;;;3.70;;
5149;SDS011;2593;52.466;13.436;2023-04-12T00:57:38;6.93;;;3.07;;
5149;SDS011;2593;52.466;13.436;2023-04-12T01:00:04;4.10;;;3.57;;
5149;SDS011;2593;52.466;13.436;2023-04-12T01:02:41;6.37;;;3.30;;
5149;SDS011;2593;52.466;13.436;2023-04-12T01:05:12;5.17;;;4.47;;
5149;SDS011;2593;52.466;13.436;2023-04-12T01:08:01;13.07;;;3.73;;
5149;SDS011;2593;52.466;13.436;2023-04-12T01:13:17;3.50;;;2.90;;
5149;SDS011;2593;52.466;13.436;2023-04-12T01:18:36;7.87;;;3.57;;
5149;SDS011;2593;52.466;13.436;2023-04-12T01:21:07;4.53;;;3.07;;
5149;SDS011;2593;52.466;13.436;2023-04-12T01:26:35;10.47;;;2.37;;
5149;SDS011;2593;52.466;13.436;2023-04-12T01:29:13;5.93;;;3.40;;
5149;SDS011;2593;52.466;13.436;2023-04-12T01:31:44;13.37;;;4.57;;
5149;SDS011;2593;52.466;13.436;2023-04-12T01:34:19;7.13;;;3.17;;
5149;SDS011;2593;52.466;13.436;2023-04-12T01:36:47;4.93;;;3.30;;
5149;SDS011;2593;52.466;13.436;2023-04-12T01:39:14;5.20;;;2.90;;
5149;SDS011;2593;52.466;13.436;2023-04-12T01:41:40;3.40;;;2.47;;
5149;SDS011;2593;52.466;13.436;2023-04-12T01:44:11;4.80;;;2.60;;
5149;SDS011;2593;52.466;13.436;2023-04-12T01:46:38;4.47;;;2.80;;
5149;SDS011;2593;52.466;13.436;2023-04-12T01:49:07;4.97;;;3.10;;
5149;SDS011;2593;52.466;13.436;2023-04-12T01:51:34;3.30;;;2.47;;
5149;SDS011;2593;52.466;13.436;2023-04-12T01:54:30;3.70;;;2.97;;
5149;SDS011;2593;52.466;13.436;2023-04-12T01:57:01;6.47;;;2.67;;
5149;SDS011;2593;52.466;13.436;2023-04-12T01:59:33;3.87;;;2.57;;
5149;SDS011;2593;52.466;13.436;2023-04-12T02:02:04;7.13;;;2.80;;
5149;SDS011;2593;52.466;13.436;2023-04-12T02:04:31;12.80;;;3.43;;
5149;SDS011;2593;52.466;13.436;2023-04-12T02:06:58;9.27;;;2.70;;
5149;SDS011;2593;52.466;13.436;2023-04-12T02:09:24;5.63;;;2.60;;
5149;SDS011;2593;52.466;13.436;2023-04-12T02:11:50;4.87;;;2.77;;
5149;SDS011;2593;52.466;13.436;2023-04-12T02:14:15;9.40;;;4.10;;
5149;SDS011;2593;52.466;13.436;2023-04-12T02:16:41;5.70;;;3.00;;
5149;SDS011;2593;52.466;13.436;2023-04-12T02:19:08;7.40;;;3.10;;
5149;SDS011;2593;52.466;13.436;2023-04-12T02:21:41;10.03;;;3.90;;
5149;SDS011;2593;52.466;13.436;2023-04-12T02:24:08;9.90;;;2.80;;
5149;SDS011;2593;52.466;13.436;2023-04-12T02:26:35;6.90;;;2.90;;
5149;SDS011;2593;52.466;13.436;2023-04-12T02:29:01;3.23;;;2.70;;
5149;SDS011;2593;52.466;13.436;2023-04-12T02:31:27;7.70;;;3.00;;
5149;SDS011;2593;52.466;13.436;2023-04-12T02:33:54;6.93;;;3.13;;
5149;SDS011;2593;52.466;13.436;2023-04-12T02:36:20;3.10;;;2.63;;
5149;SDS011;2593;52.466;13.436;2023-04-12T02:38:46;6.47;;;3.60;;
5149;SDS011;2593;52.466;13.436;2023-04-12T02:41:18;3.43;;;2.67;;
5149;SDS011;2593;52.466;13.436;2023-04-12T02:43:44;5.80;;;3.43;;
5149;SDS011;2593;52.466;13.436;2023-04-12T02:46:14;11.97;;;4.20;;
5149;SDS011;2593;52.466;13.436;2023-04-12T02:48:47;6.00;;;4.27;;
5149;SDS011;2593;52.466;13.436;2023-04-12T02:51:12;5.43;;;2.70;;
5149;SDS011;2593;52.466;13.436;2023-04-12T02:53:38;4.30;;;3.30;;
5149;SDS011;2593;52.466;13.436;2023-04-12T02:56:04;4.53;;;3.50;;
5149;SDS011;2593;52.466;13.436;2023-04-12T02:58:32;7.00;;;3.10;;
5149;SDS011;2593;52.466;13.436;2023-04-12T03:00:59;6.93;;;4.50;;
5149;SDS011;2593;52.466;13.436;2023-04-12T03:03:25;3.50;;;2.30;;
5149;SDS011;2593;52.466;13.436;2023-04-12T03:05:52;5.53;;;3.47;;
5149;SDS011;2593;52.466;13.436;2023-04-12T03:08:19;6.07;;;3.50;;
5149;SDS011;2593;52.466;13.436;2023-04-12T03:10:45;4.50;;;2.67;;
5149;SDS011;2593;52.466;13.436;2023-04-12T03:13:11;8.63;;;2.97;;
5149;SDS011;2593;52.466;13.436;2023-04-12T03:15:36;5.70;;;3.63;;
5149;SDS011;2593;52.466;13.436;2023-04-12T03:18:02;8.87;;;3.50;;
5149;SDS011;2593;52.466;13.436;2023-04-12T03:20:28;8.07;;;3.07;;
5149;SDS011;2593;52.466;13.436;2023-04-12T03:22:53;5.47;;;2.93;;
5149;SDS011;2593;52.466;13.436;2023-04-12T03:25:19;6.53;;;2.93;;
5149;SDS011;2593;52.466;13.436;2023-04-12T03:27:45;12.57;;;3.10;;
5149;SDS011;2593;52.466;13.436;2023-04-12T03:30:11;3.77;;;2.40;;
5149;SDS011;2593;52.466;13.436;2023-04-12T03:32:37;9.60;;;3.50;;
5149;SDS011;2593;52.466;13.436;2023-04-12T03:35:04;3.20;;;3.00;;
5149;SDS011;2593;52.466;13.436;2023-04-12T03:37:31;7.23;;;3.53;;
5149;SDS011;2593;52.466;13.436;2023-04-12T03:39:57;3.37;;;3.10;;
5149;SDS011;2593;52.466;13.436;2023-04-12T03:42:23;12.83;;;3.70;;
5149;SDS011;2593;52.466;13.436;2023-04-12T03:44:49;3.13;;;2.87;;
5149;SDS011;2593;52.466;13.436;2023-04-12T03:47:16;8.67;;;3.53;;
5149;SDS011;2593;52.466;13.436;2023-04-12T03:49:42;12.73;;;3.90;;
5149;SDS011;2593;52.466;13.436;2023-04-12T03:52:08;9.87;;;3.90;;
5149;SDS011;2593;52.466;13.436;2023-04-12T03:54:34;5.20;;;4.17;;
5149;SDS011;2593;52.466;13.436;2023-04-12T03:56:59;3.97;;;3.40;;
5149;SDS011;2593;52.466;13.436;2023-04-12T03:59:26;9.10;;;4.03;;
5149;SDS011;2593;52.466;13.436;2023-04-12T04:01:52;8.10;;;3.07;;
5149;SDS011;2593;52.466;13.436;2023-04-12T04:04:19;6.63;;;3.13;;
5149;SDS011;2593;52.466;13.436;2023-04-12T04:06:45;4.03;;;3.00;;
5149;SDS011;2593;52.466;13.436;2023-04-12T04:09:12;11.27;;;3.63;;
5149;SDS011;2593;52.466;13.436;2023-04-12T04:11:38;3.97;;;3.30;;
5149;SDS011;2593;52.466;13.436;2023-04-12T04:14:04;9.10;;;4.97;;
5149;SDS011;2593;52.466;13.436;2023-04-12T04:16:30;9.20;;;4.43;;
5149;SDS011;2593;52.466;13.436;2023-04-12T04:18:56;5.93;;;3.60;;
5149;SDS011;2593;52.466;13.436;2023-04-12T04:21:21;29.33;;;12.03;;
5149;SDS011;2593;52.466;13.436;2023-04-12T04:23:47;8.47;;;3.50;;
5149;SDS011;2593;52.466;13.436;2023-04-12T04:26:16;4.33;;;3.53;;
5149;SDS011;2593;52.466;13.436;2023-04-12T04:28:41;7.33;;;4.40;;
5149;SDS011;2593;52.466;13.436;2023-04-12T04:31:11;15.80;;;4.63;;
5149;SDS011;2593;52.466;13.436;2023-04-12T04:33:37;6.57;;;4.87;;
5149;SDS011;2593;52.466;13.436;2023-04-12T04:36:03;11.50;;;4.93;;
5149;SDS011;2593;52.466;13.436;2023-04-12T04:38:31;10.20;;;4.10;;
5149;SDS011;2593;52.466;13.436;2023-04-12T04:40:58;9.27;;;4.30;;
5149;SDS011;2593;52.466;13.436;2023-04-12T04:43:26;8.73;;;4.30;;
5149;SDS011;2593;52.466;13.436;2023-04-12T04:45:54;12.53;;;4.83;;
5149;SDS011;2593;52.466;13.436;2023-04-12T04:48:23;6.50;;;4.40;;
5149;SDS011;2593;52.466;13.436;2023-04-12T04:50:48;6.60;;;4.80;;
5149;SDS011;2593;52.466;13.436;2023-04-12T04:53:18;13.33;;;5.20;;
5149;SDS011;2593;52.466;13.436;2023-04-12T04:55:45;4.63;;;3.97;;
5149;SDS011;2593;52.466;13.436;2023-04-12T04:58:11;6.60;;;4.30;;
5149;SDS011;2593;52.466;13.436;2023-04-12T05:00:38;5.70;;;3.10;;
5149;SDS011;2593;52.466;13.436;2023-04-12T05:03:03;3.73;;;3.43;;
5149;SDS011;2593;52.466;13.436;2023-04-12T05:05:29;5.70;;;3.77;;
5149;SDS011;2593;52.466;13.436;2023-04-12T05:07:55;6.20;;;4.27;;
5149;SDS011;2593;52.466;13.436;2023-04-12T05:10:22;14.83;;;5.17;;
5149;SDS011;2593;52.466;13.436;2023-04-12T05:12:48;8.37;;;4.47;;
5149;SDS011;2593;52.466;13.436;2023-04-12T05:15:13;7.77;;;3.50;;
5149;SDS011;2593;52.466;13.436;2023-04-12T05:17:40;7.83;;;3.70;;
5149;SDS011;2593;52.466;13.436;2023-04-12T05:20:05;9.03;;;3.83;;
5149;SDS011;2593;52.466;13.436;2023-04-12T05:22:31;7.30;;;4.33;;
5149;SDS011;2593;52.466;13.436;2023-04-12T05:24:58;10.83;;;4.17;;
5149;SDS011;2593;52.466;13.436;2023-04-12T05:27:24;9.83;;;4.43;;
5149;SDS011;2593;52.466;13.436;2023-04-12T05:29:51;8.70;;;4.37;;
5149;SDS011;2593;52.466;13.436;2023-04-12T05:32:17;15.30;;;4.37;;
5149;SDS011;2593;52.466;13.436;2023-04-12T05:34:43;5.37;;;4.23;;
5149;SDS011;2593;52.466;13.436;2023-04-12T05:37:09;8.10;;;4.33;;
5149;SDS011;2593;52.466;13.436;2023-04-12T05:39:35;4.67;;;3.70;;
5149;SDS011;2593;52.466;13.436;2023-04-12T05:42:01;5.90;;;4.47;;
5149;SDS011;2593;52.466;13.436;2023-04-12T05:44:26;8.80;;;4.63;;
5149;SDS011;2593;52.466;13.436;2023-04-12T05:46:52;14.53;;;6.63;;
5149;SDS011;2593;52.466;13.436;2023-04-12T05:49:18;27.60;;;8.40;;
5149;SDS011;2593;52.466;13.436;2023-04-12T05:51:43;17.83;;;8.37;;
5149;SDS011;2593;52.466;13.436;2023-04-12T05:54:09;19.57;;;7.73;;
5149;SDS011;2593;52.466;13.436;2023-04-12T05:56:35;21.40;;;7.10;;
5149;SDS011;2593;52.466;13.436;2023-04-12T05:59:01;18.30;;;5.90;;
5149;SDS011;2593;52.466;13.436;2023-04-12T06:01:27;11.53;;;5.63;;
5149;SDS011;2593;52.466;13.436;2023-04-12T06:03:56;9.00;;;5.20;;
5149;SDS011;2593;52.466;13.436;2023-04-12T06:06:22;15.70;;;5.50;;
5149;SDS011;2593;52.466;13.436;2023-04-12T06:08:47;9.93;;;5.20;;
5149;SDS011;2593;52.466;13.436;2023-04-12T06:11:13;8.57;;;4.80;;
5149;SDS011;2593;52.466;13.436;2023-04-12T06:13:40;9.67;;;4.97;;
5149;SDS011;2593;52.466;13.436;2023-04-12T06:16:05;6.97;;;4.70;;
5149;SDS011;2593;52.466;13.436;2023-04-12T06:18:32;11.80;;;5.10;;
5149;SDS011;2593;52.466;13.436;2023-04-12T06:20:57;9.07;;;4.80;;
5149;SDS011;2593;52.466;13.436;2023-04-12T06:23:24;7.20;;;5.03;;
5149;SDS011;2593;52.466;13.436;2023-04-12T06:25:50;8.63;;;5.43;;
5149;SDS011;2593;52.466;13.436;2023-04-12T06:28:17;4.97;;;4.20;;
5149;SDS011;2593;52.466;13.436;2023-04-12T06:30:43;8.00;;;5.07;;
5149;SDS011;2593;52.466;13.436;2023-04-12T06:33:08;8.63;;;5.37;;
5149;SDS011;2593;52.466;13.436;2023-04-12T06:35:35;5.50;;;4.10;;
5149;SDS011;2593;52.466;13.436;2023-04-12T06:38:00;6.23;;;4.70;;
5149;SDS011;2593;52.466;13.436;2023-04-12T06:40:26;5.80;;;4.83;;
5149;SDS011;2593;52.466;13.436;2023-04-12T06:42:52;25.53;;;5.33;;
5149;SDS011;2593;52.466;13.436;2023-04-12T06:45:17;6.07;;;4.40;;
5149;SDS011;2593;52.466;13.436;2023-04-12T06:47:43;8.80;;;4.70;;
5149;SDS011;2593;52.466;13.436;2023-04-12T06:50:09;10.50;;;5.23;;
5149;SDS011;2593;52.466;13.436;2023-04-12T06:52:35;12.37;;;5.83;;
5149;SDS011;2593;52.466;13.436;2023-04-12T06:55:00;22.30;;;5.53;;
5149;SDS011;2593;52.466;13.436;2023-04-12T06:57:26;33.70;;;6.73;;
5149;SDS011;2593;52.466;13.436;2023-04-12T06:59:51;9.43;;;4.40;;
5149;SDS011;2593;52.466;13.436;2023-04-12T07:02:17;12.63;;;4.00;;
5149;SDS011;2593;52.466;13.436;2023-04-12T07:04:43;7.97;;;3.87;;
5149;SDS011;2593;52.466;13.436;2023-04-12T07:07:08;11.07;;;3.43;;
5149;SDS011;2593;52.466;13.436;2023-04-12T07:09:34;8.00;;;4.30;;
5149;SDS011;2593;52.466;13.436;2023-04-12T07:12:00;9.33;;;4.10;;
5149;SDS011;2593;52.466;13.436;2023-04-12T07:14:29;14.40;;;4.70;;
5149;SDS011;2593;52.466;13.436;2023-04-12T07:16:54;11.23;;;3.83;;
5149;SDS011;2593;52.466;13.436;2023-04-12T07:19:20;13.20;;;3.97;;
5149;SDS011;2593;52.466;13.436;2023-04-12T07:21:45;12.03;;;3.40;;
5149;SDS011;2593;52.466;13.436;2023-04-12T07:24:11;3.50;;;3.20;;
5149;SDS011;2593;52.466;13.436;2023-04-12T07:26:37;12.33;;;3.43;;
5149;SDS011;2593;52.466;13.436;2023-04-12T07:29:02;16.67;;;4.00;;
5149;SDS011;2593;52.466;13.436;2023-04-12T07:31:28;4.50;;;2.47;;
5149;SDS011;2593;52.466;13.436;2023-04-12T07:33:56;4.80;;;2.30;;
5149;SDS011;2593;52.466;13.436;2023-04-12T07:36:22;4.03;;;2.77;;
5149;SDS011;2593;52.466;13.436;2023-04-12T07:38:48;4.03;;;2.30;;
5149;SDS011;2593;52.466;13.436;2023-04-12T07:41:18;3.17;;;1.87;;
5149;SDS011;2593;52.466;13.436;2023-04-12T07:43:44;5.37;;;2.27;;
5149;SDS011;2593;52.466;13.436;2023-04-12T07:46:10;4.40;;;1.80;;
5149;SDS011;2593;52.466;13.436;2023-04-12T07:48:36;5.17;;;2.20;;
5149;SDS011;2593;52.466;13.436;2023-04-12T07:51:01;5.83;;;2.90;;
5149;SDS011;2593;52.466;13.436;2023-04-12T07:53:27;7.37;;;2.10;;
5149;SDS011;2593;52.466;13.436;2023-04-12T07:55:53;2.20;;;1.70;;
5149;SDS011;2593;52.466;13.436;2023-04-12T07:58:20;3.03;;;2.10;;
5149;SDS011;2593;52.466;13.436;2023-04-12T08:00:47;8.27;;;1.63;;
5149;SDS011;2593;52.466;13.436;2023-04-12T08:03:13;2.47;;;1.53;;
5149;SDS011;2593;52.466;13.436;2023-04-12T08:05:40;10.27;;;1.80;;
5149;SDS011;2593;52.466;13.436;2023-04-12T08:08:07;5.50;;;1.33;;
5149;SDS011;2593;52.466;13.436;2023-04-12T08:10:36;5.00;;;1.80;;
5149;SDS011;2593;52.466;13.436;2023-04-12T08:13:03;4.80;;;1.60;;
5149;SDS011;2593;52.466;13.436;2023-04-12T08:15:29;7.83;;;1.20;;
5149;SDS011;2593;52.466;13.436;2023-04-12T08:17:55;4.90;;;1.20;;
5149;SDS011;2593;52.466;13.436;2023-04-12T08:20:22;3.53;;;1.50;;
5149;SDS011;2593;52.466;13.436;2023-04-12T08:22:48;7.63;;;1.40;;
5149;SDS011;2593;52.466;13.436;2023-04-12T08:25:13;7.20;;;1.50;;
5149;SDS011;2593;52.466;13.436;2023-04-12T08:27:44;3.57;;;1.33;;
5149;SDS011;2593;52.466;13.436;2023-04-12T08:30:10;5.20;;;1.60;;
5149;SDS011;2593;52.466;13.436;2023-04-12T08:32:36;4.90;;;1.30;;
5149;SDS011;2593;52.466;13.436;2023-04-12T08:35:02;8.90;;;1.63;;
5149;SDS011;2593;52.466;13.436;2023-04-12T08:37:29;18.00;;;1.90;;
5149;SDS011;2593;52.466;13.436;2023-04-12T08:39:54;6.93;;;1.10;;
5149;SDS011;2593;52.466;13.436;2023-04-12T08:42:20;5.20;;;1.10;;
5149;SDS011;2593;52.466;13.436;2023-04-12T08:44:46;4.60;;;1.50;;
5149;SDS011;2593;52.466;13.436;2023-04-12T08:47:15;3.17;;;1.53;;
5149;SDS011;2593;52.466;13.436;2023-04-12T08:49:41;6.53;;;1.33;;
5149;SDS011;2593;52.466;13.436;2023-04-12T08:52:07;3.70;;;1.10;;
5149;SDS011;2593;52.466;13.436;2023-04-12T08:54:34;1.93;;;1.10;;
5149;SDS011;2593;52.466;13.436;2023-04-12T08:57:00;5.07;;;1.40;;
5149;SDS011;2593;52.466;13.436;2023-04-12T08:59:29;9.40;;;1.73;;
5149;SDS011;2593;52.466;13.436;2023-04-12T09:01:55;2.03;;;0.80;;
5149;SDS011;2593;52.466;13.436;2023-04-12T09:04:22;3.33;;;1.10;;
5149;SDS011;2593;52.466;13.436;2023-04-12T09:06:50;7.63;;;1.00;;
5149;SDS011;2593;52.466;13.436;2023-04-12T09:09:16;11.87;;;1.47;;
5149;SDS011;2593;52.466;13.436;2023-04-12T09:11:41;3.23;;;1.10;;
5149;SDS011;2593;52.466;13.436;2023-04-12T09:14:23;6.20;;;1.00;;
5149;SDS011;2593;52.466;13.436;2023-04-12T09:16:49;3.20;;;1.17;;
5149;SDS011;2593;52.466;13.436;2023-04-12T09:19:15;4.60;;;1.07;;
5149;SDS011;2593;52.466;13.436;2023-04-12T09:21:55;5.70;;;1.97;;
5149;SDS011;2593;52.466;13.436;2023-04-12T09:24:21;5.73;;;1.57;;
5149;SDS011;2593;52.466;13.436;2023-04-12T09:27:05;6.00;;;1.13;;
5149;SDS011;2593;52.466;13.436;2023-04-12T09:29:31;2.92;;;1.10;;
5149;SDS011;2593;52.466;13.436;2023-04-12T09:32:05;4.63;;;1.20;;
5149;SDS011;2593;52.466;13.436;2023-04-12T09:34:32;6.60;;;1.50;;
5149;SDS011;2593;52.466;13.436;2023-04-12T09:37:10;3.03;;;1.20;;
5149;SDS011;2593;52.466;13.436;2023-04-12T09:39:40;4.00;;;1.60;;
5149;SDS011;2593;52.466;13.436;2023-04-12T09:42:07;5.30;;;1.13;;
5149;SDS011;2593;52.466;13.436;2023-04-12T09:44:38;3.47;;;1.07;;
5149;SDS011;2593;52.466;13.436;2023-04-12T09:47:04;3.63;;;1.40;;
5149;SDS011;2593;52.466;13.436;2023-04-12T09:52:04;5.30;;;1.50;;
5149;SDS011;2593;52.466;13.436;2023-04-12T09:54:44;8.07;;;1.40;;
5149;SDS011;2593;52.466;13.436;2023-04-12T09:57:14;5.67;;;1.80;;
5149;SDS011;2593;52.466;13.436;2023-04-12T09:59:45;7.70;;;1.67;;
5149;SDS011;2593;52.466;13.436;2023-04-12T10:02:15;9.17;;;1.83;;
5149;SDS011;2593;52.466;13.436;2023-04-12T10:04:42;5.73;;;1.83;;
5149;SDS011;2593;52.466;13.436;2023-04-12T10:07:09;15.37;;;1.90;;
5149;SDS011;2593;52.466;13.436;2023-04-12T10:09:39;6.13;;;1.77;;
5149;SDS011;2593;52.466;13.436;2023-04-12T10:12:06;2.97;;;1.20;;
5149;SDS011;2593;52.466;13.436;2023-04-12T10:14:32;3.53;;;1.20;;
5149;SDS011;2593;52.466;13.436;2023-04-12T10:16:59;10.60;;;1.77;;
5149;SDS011;2593;52.466;13.436;2023-04-12T10:19:27;7.83;;;2.00;;
5149;SDS011;2593;52.466;13.436;2023-04-12T10:21:54;8.10;;;1.60;;
5149;SDS011;2593;52.466;13.436;2023-04-12T10:24:21;7.10;;;1.90;;
5149;SDS011;2593;52.466;13.436;2023-04-12T10:26:48;5.33;;;1.50;;
5149;SDS011;2593;52.466;13.436;2023-04-12T10:29:21;7.43;;;1.40;;
5149;SDS011;2593;52.466;13.436;2023-04-12T10:31:50;5.13;;;1.40;;
5149;SDS011;2593;52.466;13.436;2023-04-12T10:34:23;5.33;;;1.20;;
5149;SDS011;2593;52.466;13.436;2023-04-12T10:36:54;6.63;;;1.90;;
5149;SDS011;2593;52.466;13.436;2023-04-12T10:39:39;5.53;;;1.20;;
5149;SDS011;2593;52.466;13.436;2023-04-12T10:42:16;9.83;;;1.97;;
5149;SDS011;2593;52.466;13.436;2023-04-12T10:44:52;4.10;;;1.60;;
5149;SDS011;2593;52.466;13.436;2023-04-12T10:48:04;12.30;;;2.03;;
5149;SDS011;2593;52.466;13.436;2023-04-12T10:55:34;6.57;;;1.77;;
5149;SDS011;2593;52.466;13.436;2023-04-12T10:58:02;5.10;;;1.73;;
5149;SDS011;2593;52.466;13.436;2023-04-12T11:03:23;4.83;;;1.40;;
5149;SDS011;2593;52.466;13.436;2023-04-12T11:06:01;6.80;;;2.27;;
5149;SDS011;2593;52.466;13.436;2023-04-12T11:08:28;4.37;;;2.07;;
5149;SDS011;2593;52.466;13.436;2023-04-12T11:10:59;4.93;;;2.20;;
5149;SDS011;2593;52.466;13.436;2023-04-12T11:13:28;2.67;;;1.63;;
5149;SDS011;2593;52.466;13.436;2023-04-12T11:16:02;5.90;;;1.57;;
5149;SDS011;2593;52.466;13.436;2023-04-12T11:18:32;9.00;;;2.00;;
5149;SDS011;2593;52.466;13.436;2023-04-12T11:20:58;3.53;;;1.40;;
5149;SDS011;2593;52.466;13.436;2023-04-12T11:23:24;11.03;;;1.63;;
5149;SDS011;2593;52.466;13.436;2023-04-12T11:25:51;4.90;;;1.90;;
5149;SDS011;2593;52.466;13.436;2023-04-12T11:28:19;7.53;;;2.00;;
5149;SDS011;2593;52.466;13.436;2023-04-12T11:30:56;11.43;;;3.40;;
5149;SDS011;2593;52.466;13.436;2023-04-12T11:33:32;5.17;;;1.30;;
5149;SDS011;2593;52.466;13.436;2023-04-12T11:36:03;9.50;;;1.40;;
5149;SDS011;2593;52.466;13.436;2023-04-12T11:38:33;2.40;;;1.03;;
5149;SDS011;2593;52.466;13.436;2023-04-12T11:41:01;8.80;;;1.47;;
5149;SDS011;2593;52.466;13.436;2023-04-12T11:43:28;4.07;;;1.63;;
5149;SDS011;2593;52.466;13.436;2023-04-12T11:45:57;1.70;;;1.33;;
5149;SDS011;2593;52.466;13.436;2023-04-12T11:48:27;3.20;;;1.17;;
5149;SDS011;2593;52.466;13.436;2023-04-12T11:50:53;6.37;;;1.20;;
5149;SDS011;2593;52.466;13.436;2023-04-12T11:53:25;6.73;;;1.63;;
5149;SDS011;2593;52.466;13.436;2023-04-12T11:55:57;5.43;;;1.40;;
5149;SDS011;2593;52.466;13.436;2023-04-12T11:58:24;18.70;;;2.03;;
5149;SDS011;2593;52.466;13.436;2023-04-12T12:00:51;5.80;;;1.43;;
5149;SDS011;2593;52.466;13.436;2023-04-12T12:03:17;3.83;;;1.30;;
5149;SDS011;2593;52.466;13.436;2023-04-12T12:05:43;14.73;;;1.90;;
5149;SDS011;2593;52.466;13.436;2023-04-12T12:08:10;3.97;;;1.50;;
5149;SDS011;2593;52.466;13.436;2023-04-12T12:10:37;3.30;;;1.30;;
5149;SDS011;2593;52.466;13.436;2023-04-12T12:13:11;3.20;;;1.50;;
5149;SDS011;2593;52.466;13.436;2023-04-12T12:15:37;7.50;;;1.57;;
5149;SDS011;2593;52.466;13.436;2023-04-12T12:18:05;7.30;;;1.27;;
5149;SDS011;2593;52.466;13.436;2023-04-12T12:20:38;10.87;;;1.77;;
5149;SDS011;2593;52.466;13.436;2023-04-12T12:23:11;6.20;;;1.10;;
5149;SDS011;2593;52.466;13.436;2023-04-12T12:25:50;6.53;;;2.73;;
5149;SDS011;2593;52.466;13.436;2023-04-12T12:28:16;4.47;;;1.67;;
5149;SDS011;2593;52.466;13.436;2023-04-12T12:30:41;2.57;;;1.40;;
5149;SDS011;2593;52.466;13.436;2023-04-12T12:33:07;7.27;;;1.70;;
5149;SDS011;2593;52.466;13.436;2023-04-12T12:35:33;8.13;;;1.53;;
5149;SDS011;2593;52.466;13.436;2023-04-12T12:37:59;8.50;;;1.57;;
5149;SDS011;2593;52.466;13.436;2023-04-12T12:40:28;3.83;;;1.23;;
5149;SDS011;2593;52.466;13.436;2023-04-12T12:42:56;4.03;;;1.50;;
5149;SDS011;2593;52.466;13.436;2023-04-12T12:45:26;8.50;;;1.30;;
5149;SDS011;2593;52.466;13.436;2023-04-12T12:47:53;9.90;;;1.67;;
5149;SDS011;2593;52.466;13.436;2023-04-12T12:50:22;3.93;;;1.47;;
5149;SDS011;2593;52.466;13.436;2023-04-12T12:52:50;6.93;;;1.37;;
5149;SDS011;2593;52.466;13.436;2023-04-12T12:55:17;8.07;;;2.50;;
5149;SDS011;2593;52.466;13.436;2023-04-12T12:57:43;3.43;;;1.70;;
5149;SDS011;2593;52.466;13.436;2023-04-12T13:00:13;6.30;;;1.70;;
5149;SDS011;2593;52.466;13.436;2023-04-12T13:02:40;6.50;;;1.60;;
5149;SDS011;2593;52.466;13.436;2023-04-12T13:05:09;3.07;;;1.17;;
5149;SDS011;2593;52.466;13.436;2023-04-12T13:07:36;4.50;;;1.20;;
5149;SDS011;2593;52.466;13.436;2023-04-12T13:10:02;4.63;;;1.73;;
5149;SDS011;2593;52.466;13.436;2023-04-12T13:12:29;5.57;;;1.43;;
5149;SDS011;2593;52.466;13.436;2023-04-12T13:14:55;6.20;;;1.40;;
5149;SDS011;2593;52.466;13.436;2023-04-12T13:17:21;7.40;;;1.63;;
5149;SDS011;2593;52.466;13.436;2023-04-12T13:19:47;8.43;;;2.10;;
5149;SDS011;2593;52.466;13.436;2023-04-12T13:22:14;7.40;;;1.87;;
5149;SDS011;2593;52.466;13.436;2023-04-12T13:24:40;8.57;;;1.70;;
5149;SDS011;2593;52.466;13.436;2023-04-12T13:27:07;4.80;;;1.20;;
5149;SDS011;2593;52.466;13.436;2023-04-12T13:29:33;4.97;;;1.30;;
5149;SDS011;2593;52.466;13.436;2023-04-12T13:31:58;4.23;;;1.40;;
5149;SDS011;2593;52.466;13.436;2023-04-12T13:34:24;4.23;;;1.10;;
5149;SDS011;2593;52.466;13.436;2023-04-12T13:36:50;3.30;;;1.27;;
5149;SDS011;2593;52.466;13.436;2023-04-12T13:39:16;3.43;;;1.07;;
5149;SDS011;2593;52.466;13.436;2023-04-12T13:41:42;5.93;;;1.30;;
5149;SDS011;2593;52.466;13.436;2023-04-12T13:44:07;11.63;;;1.57;;
5149;SDS011;2593;52.466;13.436;2023-04-12T13:46:33;6.47;;;1.83;;
5149;SDS011;2593;52.466;13.436;2023-04-12T13:48:59;9.13;;;1.87;;
5149;SDS011;2593;52.466;13.436;2023-04-12T13:51:25;5.20;;;1.87;;
5149;SDS011;2593;52.466;13.436;2023-04-12T13:53:52;31.67;;;1.73;;
5149;SDS011;2593;52.466;13.436;2023-04-12T13:56:18;2.60;;;1.37;;
5149;SDS011;2593;52.466;13.436;2023-04-12T13:58:44;6.73;;;1.60;;
5149;SDS011;2593;52.466;13.436;2023-04-12T14:01:10;9.47;;;1.63;;
5149;SDS011;2593;52.466;13.436;2023-04-12T14:03:37;5.30;;;1.77;;
5149;SDS011;2593;52.466;13.436;2023-04-12T14:06:03;5.83;;;2.20;;
5149;SDS011;2593;52.466;13.436;2023-04-12T14:08:29;9.30;;;3.40;;
5149;SDS011;2593;52.466;13.436;2023-04-12T14:10:55;6.23;;;1.53;;
5149;SDS011;2593;52.466;13.436;2023-04-12T14:13:21;7.70;;;2.10;;
5149;SDS011;2593;52.466;13.436;2023-04-12T14:15:50;9.40;;;2.10;;
5149;SDS011;2593;52.466;13.436;2023-04-12T14:18:17;5.63;;;1.73;;
5149;SDS011;2593;52.466;13.436;2023-04-12T14:20:43;5.20;;;1.97;;
5149;SDS011;2593;52.466;13.436;2023-04-12T14:23:12;4.37;;;1.57;;
5149;SDS011;2593;52.466;13.436;2023-04-12T14:25:38;3.33;;;1.43;;
5149;SDS011;2593;52.466;13.436;2023-04-12T14:28:04;5.00;;;1.70;;
5149;SDS011;2593;52.466;13.436;2023-04-12T14:30:30;5.10;;;1.30;;
5149;SDS011;2593;52.466;13.436;2023-04-12T14:32:56;6.23;;;1.87;;
5149;SDS011;2593;52.466;13.436;2023-04-12T14:35:22;4.07;;;1.40;;
5149;SDS011;2593;52.466;13.436;2023-04-12T14:37:47;9.70;;;1.80;;
5149;SDS011;2593;52.466;13.436;2023-04-12T14:40:13;5.17;;;1.57;;
5149;SDS011;2593;52.466;13.436;2023-04-12T14:42:39;6.10;;;1.70;;
5149;SDS011;2593;52.466;13.436;2023-04-12T14:45:05;5.13;;;1.60;;
5149;SDS011;2593;52.466;13.436;2023-04-12T14:47:33;2.57;;;1.60;;
5149;SDS011;2593;52.466;13.436;2023-04-12T14:49:59;3.77;;;1.30;;
5149;SDS011;2593;52.466;13.436;2023-04-12T14:52:25;3.17;;;1.27;;
5149;SDS011;2593;52.466;13.436;2023-04-12T14:54:51;1.40;;;1.00;;
5149;SDS011;2593;52.466;13.436;2023-04-12T14:57:17;11.73;;;1.70;;
5149;SDS011;2593;52.466;13.436;2023-04-12T14:59:42;4.40;;;1.73;;
5149;SDS011;2593;52.466;13.436;2023-04-12T15:02:08;2.30;;;1.20;;
5149;SDS011;2593;52.466;13.436;2023-04-12T15:04:34;3.13;;;1.43;;
5149;SDS011;2593;52.466;13.436;2023-04-12T15:07:00;2.90;;;1.20;;
5149;SDS011;2593;52.466;13.436;2023-04-12T15:09:25;7.80;;;2.17;;
5149;SDS011;2593;52.466;13.436;2023-04-12T15:11:52;7.00;;;2.03;;
5149;SDS011;2593;52.466;13.436;2023-04-12T15:14:25;6.43;;;1.93;;
5149;SDS011;2593;52.466;13.436;2023-04-12T15:16:54;8.03;;;1.87;;
5149;SDS011;2593;52.466;13.436;2023-04-12T15:19:20;6.40;;;1.40;;
5149;SDS011;2593;52.466;13.436;2023-04-12T15:21:47;4.33;;;1.80;;